sensor_id;sensor_type;location;lat;lon;timestamp;P1;durP1;ratioP1;P2;durP2;ratioP2
65597;SDS011;52267;51.984;20.956;2023-03-11T00:00:38;26.80;;;14.90;;
65597;SDS011;52267;51.984;20.956;2023-03-11T00:03:23;29.10;;;16.50;;
65597;SDS011;52267;51.984;20.956;2023-03-11T00:05:52;27.40;;;16.70;;
65597;SDS011;52267;51.984;20.956;2023-03-11T00:08:22;28.70;;;16.40;;
65597;SDS011;52267;51.984;20.956;2023-03-11T00:10:54;29.90;;;15.00;;
65597;SDS011;52267;51.984;20.956;2023-03-11T00:13:25;30.00;;;17.70;;
65597;SDS011;52267;51.984;20.956;2023-03-11T00:15:54;19.40;;;12.60;;
65597;SDS011;52267;51.984;20.956;2023-03-11T00:18:23;28.00;;;15.80;;
65597;SDS011;52267;51.984;20.956;2023-03-11T00:20:53;24.20;;;14.40;;
65597;SDS011;52267;51.984;20.956;2023-03-11T00:23:21;27.10;;;14.20;;
65597;SDS011;52267;51.984;20.956;2023-03-11T00:25:49;26.50;;;14.60;;
65597;SDS011;52267;51.984;20.956;2023-03-11T00:28:16;28.60;;;16.40;;
65597;SDS011;52267;51.984;20.956;2023-03-11T00:30:44;28.50;;;16.40;;
65597;SDS011;52267;51.984;20.956;2023-03-11T00:33:13;29.70;;;18.00;;
65597;SDS011;52267;51.984;20.956;2023-03-11T00:35:42;29.70;;;17.60;;
65597;SDS011;52267;51.984;20.956;2023-03-11T00:38:13;37.40;;;19.60;;
65597;SDS011;52267;51.984;20.956;2023-03-11T00:40:42;36.20;;;20.10;;
65597;SDS011;52267;51.984;20.956;2023-03-11T00:43:10;38.60;;;19.60;;
65597;SDS011;52267;51.984;20.956;2023-03-11T00:45:38;32.40;;;16.90;;
65597;SDS011;52267;51.984;20.956;2023-03-11T00:48:05;29.80;;;17.50;;
65597;SDS011;52267;51.984;20.956;2023-03-11T00:50:35;32.90;;;18.10;;
65597;SDS011;52267;51.984;20.956;2023-03-11T00:53:03;19.70;;;12.10;;
65597;SDS011;52267;51.984;20.956;2023-03-11T00:55:32;24.90;;;14.40;;
65597;SDS011;52267;51.984;20.956;2023-03-11T00:58:02;25.40;;;15.10;;
65597;SDS011;52267;51.984;20.956;2023-03-11T01:00:32;29.50;;;15.40;;
65597;SDS011;52267;51.984;20.956;2023-03-11T01:03:00;26.40;;;15.70;;
65597;SDS011;52267;51.984;20.956;2023-03-11T01:05:30;30.40;;;19.00;;
65597;SDS011;52267;51.984;20.956;2023-03-11T01:07:59;28.00;;;15.00;;
65597;SDS011;52267;51.984;20.956;2023-03-11T01:10:28;26.00;;;12.90;;
65597;SDS011;52267;51.984;20.956;2023-03-11T01:12:56;29.40;;;18.00;;
65597;SDS011;52267;51.984;20.956;2023-03-11T01:15:29;32.80;;;18.90;;
65597;SDS011;52267;51.984;20.956;2023-03-11T01:18:01;32.10;;;18.30;;
65597;SDS011;52267;51.984;20.956;2023-03-11T01:20:28;28.30;;;16.80;;
65597;SDS011;52267;51.984;20.956;2023-03-11T01:22:56;36.70;;;18.00;;
65597;SDS011;52267;51.984;20.956;2023-03-11T01:25:23;26.80;;;15.00;;
65597;SDS011;52267;51.984;20.956;2023-03-11T01:27:51;28.00;;;15.40;;
65597;SDS011;52267;51.984;20.956;2023-03-11T01:30:21;19.00;;;11.70;;
65597;SDS011;52267;51.984;20.956;2023-03-11T01:32:50;24.90;;;14.30;;
65597;SDS011;52267;51.984;20.956;2023-03-11T01:35:20;20.10;;;9.40;;
65597;SDS011;52267;51.984;20.956;2023-03-11T01:37:49;23.90;;;14.30;;
65597;SDS011;52267;51.984;20.956;2023-03-11T01:40:30;23.40;;;14.30;;
65597;SDS011;52267;51.984;20.956;2023-03-11T01:42:59;26.80;;;15.70;;
65597;SDS011;52267;51.984;20.956;2023-03-11T01:48:28;30.40;;;17.00;;
65597;SDS011;52267;51.984;20.956;2023-03-11T01:50:55;20.40;;;13.10;;
65597;SDS011;52267;51.984;20.956;2023-03-11T01:53:23;23.60;;;15.20;;
65597;SDS011;52267;51.984;20.956;2023-03-11T01:55:50;23.50;;;13.90;;
65597;SDS011;52267;51.984;20.956;2023-03-11T01:58:27;29.20;;;15.00;;
65597;SDS011;52267;51.984;20.956;2023-03-11T02:00:58;24.80;;;14.30;;
65597;SDS011;52267;51.984;20.956;2023-03-11T02:03:35;16.70;;;10.00;;
65597;SDS011;52267;51.984;20.956;2023-03-11T02:06:08;22.10;;;13.40;;
65597;SDS011;52267;51.984;20.956;2023-03-11T02:08:37;27.60;;;13.90;;
65597;SDS011;52267;51.984;20.956;2023-03-11T02:11:07;16.40;;;11.30;;
65597;SDS011;52267;51.984;20.956;2023-03-11T02:13:38;24.10;;;13.00;;
65597;SDS011;52267;51.984;20.956;2023-03-11T02:16:06;19.90;;;13.10;;
65597;SDS011;52267;51.984;20.956;2023-03-11T02:18:34;21.10;;;12.70;;
65597;SDS011;52267;51.984;20.956;2023-03-11T02:21:25;25.60;;;16.20;;
65597;SDS011;52267;51.984;20.956;2023-03-11T02:24:16;23.60;;;15.00;;
65597;SDS011;52267;51.984;20.956;2023-03-11T02:26:52;27.50;;;14.80;;
65597;SDS011;52267;51.984;20.956;2023-03-11T02:29:32;21.80;;;13.10;;
65597;SDS011;52267;51.984;20.956;2023-03-11T02:32:03;27.10;;;15.60;;
65597;SDS011;52267;51.984;20.956;2023-03-11T02:34:35;26.50;;;16.30;;
65597;SDS011;52267;51.984;20.956;2023-03-11T02:37:06;25.60;;;16.30;;
65597;SDS011;52267;51.984;20.956;2023-03-11T02:39:38;30.80;;;16.50;;
65597;SDS011;52267;51.984;20.956;2023-03-11T02:42:28;26.70;;;15.20;;
65597;SDS011;52267;51.984;20.956;2023-03-11T02:45:10;18.10;;;11.00;;
65597;SDS011;52267;51.984;20.956;2023-03-11T02:47:39;21.20;;;13.20;;
65597;SDS011;52267;51.984;20.956;2023-03-11T02:50:11;19.00;;;11.20;;
65597;SDS011;52267;51.984;20.956;2023-03-11T02:52:40;23.00;;;12.10;;
65597;SDS011;52267;51.984;20.956;2023-03-11T02:55:07;19.80;;;11.90;;
65597;SDS011;52267;51.984;20.956;2023-03-11T02:57:37;20.40;;;12.00;;
65597;SDS011;52267;51.984;20.956;2023-03-11T03:00:05;20.60;;;12.80;;
65597;SDS011;52267;51.984;20.956;2023-03-11T03:02:40;19.10;;;11.50;;
65597;SDS011;52267;51.984;20.956;2023-03-11T03:05:09;20.60;;;12.10;;
65597;SDS011;52267;51.984;20.956;2023-03-11T03:07:37;22.90;;;13.50;;
65597;SDS011;52267;51.984;20.956;2023-03-11T03:10:05;20.30;;;13.40;;
65597;SDS011;52267;51.984;20.956;2023-03-11T03:12:33;21.30;;;11.40;;
65597;SDS011;52267;51.984;20.956;2023-03-11T03:15:00;23.00;;;12.50;;
65597;SDS011;52267;51.984;20.956;2023-03-11T03:17:27;27.40;;;15.10;;
65597;SDS011;52267;51.984;20.956;2023-03-11T03:19:54;26.70;;;16.60;;
65597;SDS011;52267;51.984;20.956;2023-03-11T03:22:21;20.80;;;12.20;;
65597;SDS011;52267;51.984;20.956;2023-03-11T03:24:51;20.00;;;11.60;;
65597;SDS011;52267;51.984;20.956;2023-03-11T03:27:18;18.60;;;11.30;;
65597;SDS011;52267;51.984;20.956;2023-03-11T03:29:46;17.00;;;9.70;;
65597;SDS011;52267;51.984;20.956;2023-03-11T03:32:13;23.10;;;12.30;;
65597;SDS011;52267;51.984;20.956;2023-03-11T03:34:40;28.20;;;15.20;;
65597;SDS011;52267;51.984;20.956;2023-03-11T03:37:07;20.60;;;13.00;;
65597;SDS011;52267;51.984;20.956;2023-03-11T03:39:34;20.90;;;12.10;;
65597;SDS011;52267;51.984;20.956;2023-03-11T03:42:00;25.10;;;15.00;;
65597;SDS011;52267;51.984;20.956;2023-03-11T03:44:28;24.30;;;15.00;;
65597;SDS011;52267;51.984;20.956;2023-03-11T03:46:56;24.30;;;14.60;;
65597;SDS011;52267;51.984;20.956;2023-03-11T03:49:23;24.70;;;14.50;;
65597;SDS011;52267;51.984;20.956;2023-03-11T03:51:50;25.80;;;14.70;;
65597;SDS011;52267;51.984;20.956;2023-03-11T03:54:17;23.30;;;14.00;;
65597;SDS011;52267;51.984;20.956;2023-03-11T03:56:44;26.50;;;14.80;;
65597;SDS011;52267;51.984;20.956;2023-03-11T03:59:11;23.30;;;13.60;;
65597;SDS011;52267;51.984;20.956;2023-03-11T04:01:38;25.30;;;15.00;;
65597;SDS011;52267;51.984;20.956;2023-03-11T04:04:05;24.00;;;13.90;;
65597;SDS011;52267;51.984;20.956;2023-03-11T04:06:33;26.80;;;14.30;;
65597;SDS011;52267;51.984;20.956;2023-03-11T04:09:00;21.30;;;12.60;;
65597;SDS011;52267;51.984;20.956;2023-03-11T04:11:27;13.70;;;9.10;;
65597;SDS011;52267;51.984;20.956;2023-03-11T04:13:54;24.40;;;13.50;;
65597;SDS011;52267;51.984;20.956;2023-03-11T04:16:22;17.30;;;10.80;;
65597;SDS011;52267;51.984;20.956;2023-03-11T04:18:50;14.60;;;8.70;;
65597;SDS011;52267;51.984;20.956;2023-03-11T04:21:17;18.30;;;11.00;;
65597;SDS011;52267;51.984;20.956;2023-03-11T04:23:44;22.80;;;13.60;;
65597;SDS011;52267;51.984;20.956;2023-03-11T04:26:11;23.50;;;12.80;;
65597;SDS011;52267;51.984;20.956;2023-03-11T04:28:39;23.70;;;12.80;;
65597;SDS011;52267;51.984;20.956;2023-03-11T04:34:26;21.00;;;11.70;;
65597;SDS011;52267;51.984;20.956;2023-03-11T04:36:53;21.00;;;11.80;;
65597;SDS011;52267;51.984;20.956;2023-03-11T04:39:21;16.20;;;9.30;;
65597;SDS011;52267;51.984;20.956;2023-03-11T04:41:48;16.20;;;9.40;;
65597;SDS011;52267;51.984;20.956;2023-03-11T04:44:15;22.10;;;12.70;;
65597;SDS011;52267;51.984;20.956;2023-03-11T04:46:42;17.80;;;10.90;;
65597;SDS011;52267;51.984;20.956;2023-03-11T04:49:09;22.60;;;13.30;;
65597;SDS011;52267;51.984;20.956;2023-03-11T04:51:37;23.10;;;13.00;;
65597;SDS011;52267;51.984;20.956;2023-03-11T04:54:04;19.60;;;11.80;;
65597;SDS011;52267;51.984;20.956;2023-03-11T04:56:31;23.30;;;12.50;;
65597;SDS011;52267;51.984;20.956;2023-03-11T04:58:58;16.00;;;10.10;;
65597;SDS011;52267;51.984;20.956;2023-03-11T05:01:26;12.20;;;7.00;;
65597;SDS011;52267;51.984;20.956;2023-03-11T05:03:53;11.90;;;7.10;;
65597;SDS011;52267;51.984;20.956;2023-03-11T05:06:20;17.30;;;9.50;;
65597;SDS011;52267;51.984;20.956;2023-03-11T05:08:47;19.80;;;10.70;;
65597;SDS011;52267;51.984;20.956;2023-03-11T05:11:14;16.90;;;9.80;;
65597;SDS011;52267;51.984;20.956;2023-03-11T05:13:41;17.60;;;10.50;;
65597;SDS011;52267;51.984;20.956;2023-03-11T05:16:08;22.70;;;11.80;;
65597;SDS011;52267;51.984;20.956;2023-03-11T05:18:35;20.10;;;10.50;;
65597;SDS011;52267;51.984;20.956;2023-03-11T05:21:02;19.90;;;10.60;;
65597;SDS011;52267;51.984;20.956;2023-03-11T05:23:30;20.40;;;11.40;;
65597;SDS011;52267;51.984;20.956;2023-03-11T05:25:57;18.20;;;10.30;;
65597;SDS011;52267;51.984;20.956;2023-03-11T05:28:24;18.80;;;10.40;;
65597;SDS011;52267;51.984;20.956;2023-03-11T05:30:51;17.20;;;10.10;;
65597;SDS011;52267;51.984;20.956;2023-03-11T05:33:18;16.00;;;8.60;;
65597;SDS011;52267;51.984;20.956;2023-03-11T05:35:45;17.00;;;9.70;;
65597;SDS011;52267;51.984;20.956;2023-03-11T05:38:12;16.10;;;8.70;;
65597;SDS011;52267;51.984;20.956;2023-03-11T05:40:39;12.80;;;7.60;;
65597;SDS011;52267;51.984;20.956;2023-03-11T05:43:07;12.30;;;6.60;;
65597;SDS011;52267;51.984;20.956;2023-03-11T05:45:34;10.60;;;6.60;;
65597;SDS011;52267;51.984;20.956;2023-03-11T05:48:01;8.50;;;5.00;;
65597;SDS011;52267;51.984;20.956;2023-03-11T05:50:28;10.50;;;6.60;;
65597;SDS011;52267;51.984;20.956;2023-03-11T05:52:55;9.50;;;5.80;;
65597;SDS011;52267;51.984;20.956;2023-03-11T05:55:22;9.10;;;5.90;;
65597;SDS011;52267;51.984;20.956;2023-03-11T05:57:50;10.90;;;6.80;;
65597;SDS011;52267;51.984;20.956;2023-03-11T06:00:18;9.00;;;5.90;;
65597;SDS011;52267;51.984;20.956;2023-03-11T06:02:46;9.30;;;5.80;;
65597;SDS011;52267;51.984;20.956;2023-03-11T06:05:13;9.10;;;6.50;;
65597;SDS011;52267;51.984;20.956;2023-03-11T06:07:40;11.40;;;6.80;;
65597;SDS011;52267;51.984;20.956;2023-03-11T06:10:08;9.80;;;6.00;;
65597;SDS011;52267;51.984;20.956;2023-03-11T06:12:35;9.90;;;6.20;;
65597;SDS011;52267;51.984;20.956;2023-03-11T06:15:07;10.30;;;6.30;;
65597;SDS011;52267;51.984;20.956;2023-03-11T06:17:34;12.50;;;7.20;;
65597;SDS011;52267;51.984;20.956;2023-03-11T06:20:01;12.00;;;7.50;;
65597;SDS011;52267;51.984;20.956;2023-03-11T06:22:30;8.80;;;6.80;;
65597;SDS011;52267;51.984;20.956;2023-03-11T06:24:57;10.90;;;6.70;;
65597;SDS011;52267;51.984;20.956;2023-03-11T06:27:24;11.90;;;6.80;;
65597;SDS011;52267;51.984;20.956;2023-03-11T06:29:52;9.30;;;5.20;;
65597;SDS011;52267;51.984;20.956;2023-03-11T06:32:20;9.90;;;6.80;;
65597;SDS011;52267;51.984;20.956;2023-03-11T06:34:51;10.60;;;6.30;;
65597;SDS011;52267;51.984;20.956;2023-03-11T06:37:18;9.50;;;6.40;;
65597;SDS011;52267;51.984;20.956;2023-03-11T06:39:46;10.30;;;6.40;;
65597;SDS011;52267;51.984;20.956;2023-03-11T06:42:13;9.20;;;5.10;;
65597;SDS011;52267;51.984;20.956;2023-03-11T06:44:40;9.70;;;6.00;;
65597;SDS011;52267;51.984;20.956;2023-03-11T06:47:07;8.90;;;6.00;;
65597;SDS011;52267;51.984;20.956;2023-03-11T06:49:35;10.10;;;6.30;;
65597;SDS011;52267;51.984;20.956;2023-03-11T06:52:07;11.30;;;6.90;;
65597;SDS011;52267;51.984;20.956;2023-03-11T06:54:34;11.10;;;7.60;;
65597;SDS011;52267;51.984;20.956;2023-03-11T06:57:02;9.60;;;6.40;;
65597;SDS011;52267;51.984;20.956;2023-03-11T06:59:29;9.30;;;6.40;;
65597;SDS011;52267;51.984;20.956;2023-03-11T07:01:57;8.70;;;7.00;;
65597;SDS011;52267;51.984;20.956;2023-03-11T07:04:24;12.50;;;7.20;;
65597;SDS011;52267;51.984;20.956;2023-03-11T07:06:51;11.30;;;7.00;;
65597;SDS011;52267;51.984;20.956;2023-03-11T07:09:18;10.40;;;7.30;;
65597;SDS011;52267;51.984;20.956;2023-03-11T07:11:47;6.80;;;5.30;;
65597;SDS011;52267;51.984;20.956;2023-03-11T07:14:15;11.20;;;7.10;;
65597;SDS011;52267;51.984;20.956;2023-03-11T07:16:42;9.20;;;6.50;;
65597;SDS011;52267;51.984;20.956;2023-03-11T07:19:09;12.60;;;7.50;;
65597;SDS011;52267;51.984;20.956;2023-03-11T07:21:38;11.30;;;7.80;;
65597;SDS011;52267;51.984;20.956;2023-03-11T07:24:07;14.80;;;9.20;;
65597;SDS011;52267;51.984;20.956;2023-03-11T07:26:37;15.00;;;10.20;;
65597;SDS011;52267;51.984;20.956;2023-03-11T07:29:04;9.70;;;7.10;;
65597;SDS011;52267;51.984;20.956;2023-03-11T07:31:33;11.70;;;6.70;;
65597;SDS011;52267;51.984;20.956;2023-03-11T07:34:02;9.60;;;6.60;;
65597;SDS011;52267;51.984;20.956;2023-03-11T07:36:31;12.00;;;7.70;;
65597;SDS011;52267;51.984;20.956;2023-03-11T07:39:00;10.90;;;7.00;;
65597;SDS011;52267;51.984;20.956;2023-03-11T07:41:32;11.10;;;7.30;;
65597;SDS011;52267;51.984;20.956;2023-03-11T07:44:02;10.30;;;7.60;;
65597;SDS011;52267;51.984;20.956;2023-03-11T07:46:30;11.50;;;7.10;;
65597;SDS011;52267;51.984;20.956;2023-03-11T07:48:58;11.40;;;7.10;;
65597;SDS011;52267;51.984;20.956;2023-03-11T07:51:28;12.30;;;7.80;;
65597;SDS011;52267;51.984;20.956;2023-03-11T07:53:58;10.40;;;7.30;;
65597;SDS011;52267;51.984;20.956;2023-03-11T07:56:28;10.70;;;6.80;;
65597;SDS011;52267;51.984;20.956;2023-03-11T07:58:59;11.40;;;7.00;;
65597;SDS011;52267;51.984;20.956;2023-03-11T08:01:28;11.20;;;7.20;;
65597;SDS011;52267;51.984;20.956;2023-03-11T08:04:04;11.30;;;6.80;;
65597;SDS011;52267;51.984;20.956;2023-03-11T08:06:33;14.20;;;7.90;;
65597;SDS011;52267;51.984;20.956;2023-03-11T08:09:04;13.00;;;9.60;;
65597;SDS011;52267;51.984;20.956;2023-03-11T08:11:33;13.60;;;9.70;;
65597;SDS011;52267;51.984;20.956;2023-03-11T08:14:01;13.50;;;8.10;;
65597;SDS011;52267;51.984;20.956;2023-03-11T08:16:28;13.40;;;7.80;;
65597;SDS011;52267;51.984;20.956;2023-03-11T08:18:56;10.20;;;7.40;;
65597;SDS011;52267;51.984;20.956;2023-03-11T08:21:25;10.70;;;7.10;;
65597;SDS011;52267;51.984;20.956;2023-03-11T08:23:59;12.40;;;7.50;;
65597;SDS011;52267;51.984;20.956;2023-03-11T08:26:28;10.80;;;7.90;;
65597;SDS011;52267;51.984;20.956;2023-03-11T08:28:57;12.60;;;6.90;;
65597;SDS011;52267;51.984;20.956;2023-03-11T08:31:27;12.70;;;8.10;;
65597;SDS011;52267;51.984;20.956;2023-03-11T08:36:27;12.00;;;7.40;;
65597;SDS011;52267;51.984;20.956;2023-03-11T08:38:54;15.10;;;9.10;;
65597;SDS011;52267;51.984;20.956;2023-03-11T08:44:53;14.40;;;8.70;;
65597;SDS011;52267;51.984;20.956;2023-03-11T08:47:20;13.80;;;7.60;;
65597;SDS011;52267;51.984;20.956;2023-03-11T08:49:47;15.00;;;9.10;;
65597;SDS011;52267;51.984;20.956;2023-03-11T08:52:14;12.20;;;7.60;;
65597;SDS011;52267;51.984;20.956;2023-03-11T08:54:41;14.40;;;9.00;;
65597;SDS011;52267;51.984;20.956;2023-03-11T08:57:08;17.50;;;10.40;;
65597;SDS011;52267;51.984;20.956;2023-03-11T08:59:35;14.50;;;8.70;;
65597;SDS011;52267;51.984;20.956;2023-03-11T09:02:02;15.60;;;9.60;;
65597;SDS011;52267;51.984;20.956;2023-03-11T09:04:30;16.40;;;10.70;;
65597;SDS011;52267;51.984;20.956;2023-03-11T09:06:57;13.90;;;8.10;;
65597;SDS011;52267;51.984;20.956;2023-03-11T09:09:24;13.70;;;8.10;;
65597;SDS011;52267;51.984;20.956;2023-03-11T09:11:51;17.00;;;10.00;;
65597;SDS011;52267;51.984;20.956;2023-03-11T09:14:18;14.80;;;8.70;;
65597;SDS011;52267;51.984;20.956;2023-03-11T09:16:45;14.20;;;8.20;;
65597;SDS011;52267;51.984;20.956;2023-03-11T09:19:12;13.20;;;7.30;;
65597;SDS011;52267;51.984;20.956;2023-03-11T09:21:39;16.80;;;9.90;;
65597;SDS011;52267;51.984;20.956;2023-03-11T09:24:07;14.70;;;8.80;;
65597;SDS011;52267;51.984;20.956;2023-03-11T09:26:34;11.70;;;7.10;;
65597;SDS011;52267;51.984;20.956;2023-03-11T09:29:02;12.30;;;7.10;;
65597;SDS011;52267;51.984;20.956;2023-03-11T09:31:29;10.40;;;6.30;;
65597;SDS011;52267;51.984;20.956;2023-03-11T09:33:56;11.30;;;6.70;;
65597;SDS011;52267;51.984;20.956;2023-03-11T09:36:23;8.50;;;5.30;;
65597;SDS011;52267;51.984;20.956;2023-03-11T09:38:50;9.90;;;5.60;;
65597;SDS011;52267;51.984;20.956;2023-03-11T09:55:23;5.80;;;3.40;;
65597;SDS011;52267;51.984;20.956;2023-03-11T10:00:47;4.60;;;2.60;;
65597;SDS011;52267;51.984;20.956;2023-03-11T10:03:30;9.80;;;5.30;;
65597;SDS011;52267;51.984;20.956;2023-03-11T10:06:14;10.00;;;6.10;;
65597;SDS011;52267;51.984;20.956;2023-03-11T10:08:59;14.50;;;8.40;;
65597;SDS011;52267;51.984;20.956;2023-03-11T10:25:17;12.50;;;7.50;;
65597;SDS011;52267;51.984;20.956;2023-03-11T10:27:48;15.80;;;8.00;;
65597;SDS011;52267;51.984;20.956;2023-03-11T10:30:27;12.70;;;7.20;;
65597;SDS011;52267;51.984;20.956;2023-03-11T10:35:54;12.00;;;7.50;;
65597;SDS011;52267;51.984;20.956;2023-03-11T10:38:44;9.90;;;6.30;;
65597;SDS011;52267;51.984;20.956;2023-03-11T10:41:56;11.60;;;7.50;;
65597;SDS011;52267;51.984;20.956;2023-03-11T10:44:37;12.20;;;6.90;;
65597;SDS011;52267;51.984;20.956;2023-03-11T10:47:14;6.50;;;4.40;;
65597;SDS011;52267;51.984;20.956;2023-03-11T10:49:44;10.50;;;5.80;;
65597;SDS011;52267;51.984;20.956;2023-03-11T10:52:11;8.30;;;5.40;;
65597;SDS011;52267;51.984;20.956;2023-03-11T10:54:44;8.40;;;4.70;;
65597;SDS011;52267;51.984;20.956;2023-03-11T10:57:24;6.50;;;4.10;;
65597;SDS011;52267;51.984;20.956;2023-03-11T10:59:54;7.60;;;5.00;;
65597;SDS011;52267;51.984;20.956;2023-03-11T11:02:28;11.30;;;6.80;;
65597;SDS011;52267;51.984;20.956;2023-03-11T11:07:45;9.00;;;5.60;;
65597;SDS011;52267;51.984;20.956;2023-03-11T11:10:18;8.60;;;5.40;;
65597;SDS011;52267;51.984;20.956;2023-03-11T11:12:51;6.00;;;3.90;;
65597;SDS011;52267;51.984;20.956;2023-03-11T11:18:41;9.20;;;6.50;;
65597;SDS011;52267;51.984;20.956;2023-03-11T11:21:31;11.50;;;7.20;;
65597;SDS011;52267;51.984;20.956;2023-03-11T11:24:24;10.50;;;6.70;;
65597;SDS011;52267;51.984;20.956;2023-03-11T11:29:47;11.00;;;7.30;;
65597;SDS011;52267;51.984;20.956;2023-03-11T11:32:29;10.40;;;7.10;;
65597;SDS011;52267;51.984;20.956;2023-03-11T11:35:01;11.70;;;7.60;;
65597;SDS011;52267;51.984;20.956;2023-03-11T11:37:39;11.00;;;6.70;;
65597;SDS011;52267;51.984;20.956;2023-03-11T11:40:25;10.20;;;6.60;;
65597;SDS011;52267;51.984;20.956;2023-03-11T11:43:11;9.50;;;6.50;;
65597;SDS011;52267;51.984;20.956;2023-03-11T11:45:44;7.30;;;5.20;;
65597;SDS011;52267;51.984;20.956;2023-03-11T11:48:23;9.10;;;6.30;;
65597;SDS011;52267;51.984;20.956;2023-03-11T11:51:02;9.40;;;6.20;;
65597;SDS011;52267;51.984;20.956;2023-03-11T11:56:08;10.20;;;5.70;;
65597;SDS011;52267;51.984;20.956;2023-03-11T11:58:35;9.80;;;5.80;;
65597;SDS011;52267;51.984;20.956;2023-03-11T12:01:18;9.00;;;6.50;;
65597;SDS011;52267;51.984;20.956;2023-03-11T12:12:26;8.70;;;5.30;;
65597;SDS011;52267;51.984;20.956;2023-03-11T12:15:39;7.60;;;4.60;;
65597;SDS011;52267;51.984;20.956;2023-03-11T12:18:19;7.30;;;4.80;;
65597;SDS011;52267;51.984;20.956;2023-03-11T12:20:54;9.40;;;6.20;;
65597;SDS011;52267;51.984;20.956;2023-03-11T12:26:21;9.80;;;6.00;;
65597;SDS011;52267;51.984;20.956;2023-03-11T12:28:59;10.40;;;6.40;;
65597;SDS011;52267;51.984;20.956;2023-03-11T12:31:34;10.30;;;6.80;;
65597;SDS011;52267;51.984;20.956;2023-03-11T12:34:09;8.50;;;6.30;;
65597;SDS011;52267;51.984;20.956;2023-03-11T12:36:41;12.20;;;8.10;;
65597;SDS011;52267;51.984;20.956;2023-03-11T12:39:22;8.10;;;5.60;;
65597;SDS011;52267;51.984;20.956;2023-03-11T12:42:22;10.80;;;6.70;;
65597;SDS011;52267;51.984;20.956;2023-03-11T12:44:52;9.50;;;6.20;;
65597;SDS011;52267;51.984;20.956;2023-03-11T12:47:24;10.50;;;6.50;;
65597;SDS011;52267;51.984;20.956;2023-03-11T12:49:56;11.70;;;8.20;;
65597;SDS011;52267;51.984;20.956;2023-03-11T12:53:00;11.60;;;6.50;;
65597;SDS011;52267;51.984;20.956;2023-03-11T12:55:32;11.90;;;7.90;;
65597;SDS011;52267;51.984;20.956;2023-03-11T12:58:30;13.30;;;8.90;;
65597;SDS011;52267;51.984;20.956;2023-03-11T13:10:37;11.30;;;7.10;;
65597;SDS011;52267;51.984;20.956;2023-03-11T13:18:42;10.20;;;7.50;;
65597;SDS011;52267;51.984;20.956;2023-03-11T13:29:44;12.20;;;6.90;;
65597;SDS011;52267;51.984;20.956;2023-03-11T13:38:57;11.40;;;7.40;;
65597;SDS011;52267;51.984;20.956;2023-03-11T13:41:35;10.30;;;6.80;;
65597;SDS011;52267;51.984;20.956;2023-03-11T13:44:21;9.90;;;5.80;;
65597;SDS011;52267;51.984;20.956;2023-03-11T13:47:01;14.20;;;8.70;;
65597;SDS011;52267;51.984;20.956;2023-03-11T13:49:50;11.80;;;7.50;;
65597;SDS011;52267;51.984;20.956;2023-03-11T13:52:58;10.40;;;5.80;;
65597;SDS011;52267;51.984;20.956;2023-03-11T13:55:40;12.30;;;7.90;;
65597;SDS011;52267;51.984;20.956;2023-03-11T13:58:26;13.00;;;8.70;;
65597;SDS011;52267;51.984;20.956;2023-03-11T14:00:59;14.30;;;9.10;;
65597;SDS011;52267;51.984;20.956;2023-03-11T14:03:35;10.20;;;5.60;;
65597;SDS011;52267;51.984;20.956;2023-03-11T14:06:13;13.80;;;8.70;;
65597;SDS011;52267;51.984;20.956;2023-03-11T14:08:42;14.00;;;8.90;;
65597;SDS011;52267;51.984;20.956;2023-03-11T14:13:40;10.20;;;7.30;;
65597;SDS011;52267;51.984;20.956;2023-03-11T14:16:27;11.20;;;7.00;;
65597;SDS011;52267;51.984;20.956;2023-03-11T14:19:14;12.40;;;7.70;;
65597;SDS011;52267;51.984;20.956;2023-03-11T14:21:47;14.90;;;9.20;;
65597;SDS011;52267;51.984;20.956;2023-03-11T14:24:18;15.30;;;9.70;;
65597;SDS011;52267;51.984;20.956;2023-03-11T14:26:50;12.00;;;8.00;;
65597;SDS011;52267;51.984;20.956;2023-03-11T14:29:42;13.20;;;7.80;;
65597;SDS011;52267;51.984;20.956;2023-03-11T14:32:36;11.60;;;6.50;;
65597;SDS011;52267;51.984;20.956;2023-03-11T14:37:45;9.90;;;6.80;;
65597;SDS011;52267;51.984;20.956;2023-03-11T14:40:24;11.60;;;7.20;;
65597;SDS011;52267;51.984;20.956;2023-03-11T14:43:06;9.40;;;5.30;;
65597;SDS011;52267;51.984;20.956;2023-03-11T14:45:38;10.70;;;6.40;;
65597;SDS011;52267;51.984;20.956;2023-03-11T14:48:28;13.40;;;8.60;;
65597;SDS011;52267;51.984;20.956;2023-03-11T14:50:57;8.30;;;5.40;;
65597;SDS011;52267;51.984;20.956;2023-03-11T14:53:36;9.00;;;5.80;;
65597;SDS011;52267;51.984;20.956;2023-03-11T14:56:21;12.70;;;6.80;;
65597;SDS011;52267;51.984;20.956;2023-03-11T14:59:14;9.50;;;6.60;;
65597;SDS011;52267;51.984;20.956;2023-03-11T15:01:43;10.80;;;6.00;;
65597;SDS011;52267;51.984;20.956;2023-03-11T15:06:55;11.60;;;7.00;;
65597;SDS011;52267;51.984;20.956;2023-03-11T15:09:25;10.10;;;6.80;;
65597;SDS011;52267;51.984;20.956;2023-03-11T15:11:59;10.60;;;7.10;;
65597;SDS011;52267;51.984;20.956;2023-03-11T15:14:35;9.60;;;6.40;;
65597;SDS011;52267;51.984;20.956;2023-03-11T15:19:47;11.10;;;6.70;;
65597;SDS011;52267;51.984;20.956;2023-03-11T15:25:01;10.20;;;5.60;;
65597;SDS011;52267;51.984;20.956;2023-03-11T15:27:36;11.00;;;6.40;;
65597;SDS011;52267;51.984;20.956;2023-03-11T15:32:47;9.00;;;5.30;;
65597;SDS011;52267;51.984;20.956;2023-03-11T15:38:20;11.80;;;6.10;;
65597;SDS011;52267;51.984;20.956;2023-03-11T15:40:55;8.20;;;5.40;;
65597;SDS011;52267;51.984;20.956;2023-03-11T15:45:59;6.40;;;4.10;;
65597;SDS011;52267;51.984;20.956;2023-03-11T15:48:28;8.50;;;3.90;;
65597;SDS011;52267;51.984;20.956;2023-03-11T15:50:57;10.80;;;5.70;;
65597;SDS011;52267;51.984;20.956;2023-03-11T15:53:27;10.80;;;5.60;;
65597;SDS011;52267;51.984;20.956;2023-03-11T15:55:59;8.70;;;4.70;;
65597;SDS011;52267;51.984;20.956;2023-03-11T15:58:30;10.60;;;5.30;;
65597;SDS011;52267;51.984;20.956;2023-03-11T16:00:58;12.40;;;6.40;;
65597;SDS011;52267;51.984;20.956;2023-03-11T16:03:26;12.20;;;5.80;;
65597;SDS011;52267;51.984;20.956;2023-03-11T16:05:54;9.20;;;5.00;;
65597;SDS011;52267;51.984;20.956;2023-03-11T16:08:21;9.30;;;6.00;;
65597;SDS011;52267;51.984;20.956;2023-03-11T16:10:49;10.30;;;5.80;;
65597;SDS011;52267;51.984;20.956;2023-03-11T16:13:16;10.90;;;6.50;;
65597;SDS011;52267;51.984;20.956;2023-03-11T16:15:43;9.60;;;5.70;;
65597;SDS011;52267;51.984;20.956;2023-03-11T16:18:13;9.00;;;5.00;;
65597;SDS011;52267;51.984;20.956;2023-03-11T16:20:43;9.20;;;4.80;;
65597;SDS011;52267;51.984;20.956;2023-03-11T16:23:22;12.30;;;5.60;;
65597;SDS011;52267;51.984;20.956;2023-03-11T16:26:01;9.30;;;4.50;;
65597;SDS011;52267;51.984;20.956;2023-03-11T16:28:31;10.50;;;5.20;;
65597;SDS011;52267;51.984;20.956;2023-03-11T16:30:59;8.50;;;5.60;;
65597;SDS011;52267;51.984;20.956;2023-03-11T16:33:26;8.10;;;5.00;;
65597;SDS011;52267;51.984;20.956;2023-03-11T16:35:53;10.60;;;5.30;;
65597;SDS011;52267;51.984;20.956;2023-03-11T16:38:21;9.90;;;5.30;;
65597;SDS011;52267;51.984;20.956;2023-03-11T16:40:57;7.00;;;3.90;;
65597;SDS011;52267;51.984;20.956;2023-03-11T16:43:27;7.60;;;4.40;;